createdAt,value
2022-11-18T00:03:41.483Z,100141.81
2022-11-18T00:08:38.899Z,100120.78
2022-11-18T00:13:56.011Z,100139.38
2022-11-18T00:18:53.654Z,100120.78
2022-11-18T00:23:51.049Z,100086.09
2022-11-18T00:28:48.886Z,100079.03
2022-11-18T00:33:46.218Z,100105.75
2022-11-18T00:38:44.210Z,100040.84
2022-11-18T00:43:41.970Z,100109.31
2022-11-18T00:48:39.491Z,100145.84
2022-11-18T00:53:39.049Z,100110.16
2022-11-18T00:58:37.692Z,100052.31
2022-11-18T01:03:34.649Z,100032.13
2022-11-18T01:08:33.307Z,100103.44
2022-11-18T01:13:30.716Z,100122.94
2022-11-18T01:18:31.248Z,100042.47
2022-11-18T01:23:28.616Z,100121.75
2022-11-18T01:28:25.701Z,100080.44
2022-11-18T01:33:22.750Z,100058.69
2022-11-18T01:38:24.393Z,100070.91
2022-11-18T01:43:23.102Z,100103.06
2022-11-18T01:48:24.192Z,100122.84
2022-11-18T01:53:26.774Z,100099.91
2022-11-18T01:58:27.346Z,100077.19
2022-11-18T02:03:27.057Z,100086.66
2022-11-18T02:08:32.908Z,100120.06
2022-11-18T02:13:31.838Z,100122.97
2022-11-18T02:18:37.867Z,100093.00
2022-11-18T02:24:07.573Z,100094.59
2022-11-18T02:29:09.207Z,100135.41
2022-11-18T02:34:15.940Z,100048.28
2022-11-18T02:39:20.675Z,100141.63
2022-11-18T02:44:21.759Z,100135.88
2022-11-18T02:49:23.564Z,100129.13
2022-11-18T02:54:22.708Z,100107.22
2022-11-18T02:59:21.094Z,100098.50
2022-11-18T03:04:18.956Z,100095.13
2022-11-18T03:09:20.962Z,100102.22
2022-11-18T03:14:25.137Z,100119.22
2022-11-18T03:19:29.166Z,100058.88
2022-11-18T03:24:30.688Z,100068.69
2022-11-18T03:29:34.126Z,100125.91
2022-11-18T03:34:36.431Z,100093.34
2022-11-18T03:39:46.465Z,100077.59
2022-11-18T03:44:52.556Z,100138.88
2022-11-18T03:49:54.473Z,100010.88
2022-11-18T03:54:55.015Z,100126.97
2022-11-18T03:59:58.493Z,100051.59
2022-11-18T04:04:58.318Z,100128.91
2022-11-18T04:09:58.236Z,100039.22
2022-11-18T04:14:56.539Z,100071.44
2022-11-18T04:19:53.858Z,100135.59
2022-11-18T04:24:51.338Z,100098.75
2022-11-18T04:29:48.704Z,100142.38
2022-11-18T04:34:47.129Z,100092.03
2022-11-18T04:39:44.292Z,100059.22
2022-11-18T04:44:41.743Z,100042.59
2022-11-18T04:49:38.833Z,100105.31
2022-11-18T04:54:36.881Z,100146.72
2022-11-18T04:59:33.987Z,100121.69
2022-11-18T05:04:33.507Z,100083.81
2022-11-18T05:09:32.255Z,100129.75
2022-11-18T05:14:31.076Z,100105.97
2022-11-18T05:19:28.351Z,100127.78
2022-11-18T05:24:26.434Z,100127.63
2022-11-18T05:29:24.213Z,100119.19
2022-11-18T05:34:23.124Z,100162.16
2022-11-18T05:39:21.557Z,100098.44
2022-11-18T05:44:18.944Z,100130.53
2022-11-18T05:49:16.416Z,100110.44
2022-11-18T05:54:16.914Z,100160.53
2022-11-18T05:59:19.999Z,100138.72
2022-11-18T06:04:22.763Z,100046.25
2022-11-18T06:09:26.698Z,100086.91
2022-11-18T06:14:34.145Z,100193.78
2022-11-18T06:19:33.213Z,100078.69
2022-11-18T06:24:33.024Z,100179.09
2022-11-18T06:29:33.187Z,100084.66
2022-11-18T06:34:33.567Z,100144.53
2022-11-18T06:39:34.182Z,100174.59
2022-11-18T06:44:32.227Z,100074.34
2022-11-18T06:49:30.412Z,100166.47
2022-11-18T06:54:34.462Z,100088.47
2022-11-18T06:59:32.854Z,100077.22
2022-11-18T07:04:30.434Z,100132.38
2022-11-18T07:09:28.183Z,100141.91
2022-11-18T07:14:26.786Z,100103.00
2022-11-18T07:19:24.501Z,100162.50
2022-11-18T07:24:22.211Z,100168.31
2022-11-18T07:29:20.295Z,100110.66
2022-11-18T07:34:19.822Z,100154.41
2022-11-18T07:39:17.620Z,100156.13
2022-11-18T07:44:17.052Z,100171.41
2022-11-18T07:49:19.573Z,100137.50
2022-11-18T07:54:23.584Z,100128.22
2022-11-18T07:59:29.938Z,100047.00
2022-11-18T08:04:28.429Z,100149.41
2022-11-18T08:09:25.809Z,100102.72
2022-11-18T08:14:23.711Z,100123.34
2022-11-18T08:19:24.056Z,100145.66
2022-11-18T08:24:22.964Z,100128.91
2022-11-18T08:29:25.289Z,100118.31
2022-11-18T08:34:23.126Z,100141.34
2022-11-18T08:39:20.295Z,100134.50
2022-11-18T08:44:18.964Z,100101.50
2022-11-18T08:49:18.606Z,100098.81
2022-11-18T08:54:16.206Z,100132.81
2022-11-18T08:59:14.162Z,100090.13
2022-11-18T09:10:42.820Z,100104.59
2022-11-18T09:15:40.151Z,100020.66
2022-11-18T09:20:40.521Z,100071.72
2022-11-18T09:25:38.124Z,100117.81
2022-11-18T09:30:35.153Z,100063.41
2022-11-18T09:35:33.388Z,100016.09
2022-11-18T09:40:49.359Z,100053.88
2022-11-18T09:45:59.429Z,100047.53
2022-11-18T09:50:57.114Z,100014.22
2022-11-18T09:55:56.291Z,100020.03
2022-11-18T10:00:53.378Z,100002.72
2022-11-18T10:06:02.404Z,99894.47
2022-11-18T10:11:14.059Z,99989.66
2022-11-18T10:16:22.950Z,99940.66
2022-11-18T10:21:33.509Z,99879.63
2022-11-18T10:26:37.290Z,99897.28
2022-11-18T10:31:37.227Z,99904.97
2022-11-18T10:36:36.078Z,99903.50
2022-11-18T10:41:40.580Z,99927.03
2022-11-18T10:46:39.026Z,99860.13
2022-11-18T10:51:37.440Z,99876.19
2022-11-18T10:56:45.156Z,99859.22
2022-11-18T11:01:42.350Z,99881.69
2022-11-18T11:06:39.990Z,99828.16
2022-11-18T11:11:42.822Z,99862.75
2022-11-18T11:16:48.096Z,99846.41
2022-11-18T11:21:45.157Z,99880.66
2022-11-18T11:32:22.461Z,99814.72
2022-11-18T11:37:29.581Z,99745.16
2022-11-18T11:42:37.578Z,99753.66
2022-11-18T11:47:49.412Z,99822.41
2022-11-18T11:52:59.900Z,99824.06
2022-11-18T11:58:21.329Z,99830.53
2022-11-18T12:03:46.053Z,99833.34
2022-11-18T12:09:04.028Z,99784.75
2022-11-18T12:14:07.153Z,99802.88
2022-11-18T12:19:11.595Z,99807.91
2022-11-18T12:24:30.596Z,99769.25
2022-11-18T12:29:40.559Z,99794.94
2022-11-18T12:34:41.903Z,99780.25
2022-11-18T12:40:00.446Z,99782.91
2022-11-18T12:45:36.111Z,99763.09
2022-11-18T12:50:49.166Z,99791.44
2022-11-18T12:55:47.006Z,99795.06
2022-11-18T13:00:58.504Z,99726.94
2022-11-18T13:06:13.540Z,99730.59
2022-11-18T13:11:34.788Z,99708.53
2022-11-18T13:16:50.349Z,99694.13
2022-11-18T13:22:11.068Z,99782.38
2022-11-18T13:27:20.428Z,99783.06
2022-11-18T13:32:22.739Z,99752.63
2022-11-18T13:37:23.048Z,99771.78
2022-11-18T13:42:23.166Z,99738.50
2022-11-18T13:47:29.013Z,99728.06
2022-11-18T13:52:32.214Z,99664.06
2022-11-18T13:57:31.272Z,99755.66
2022-11-18T14:02:29.073Z,99724.09
2022-11-18T14:07:31.437Z,99680.22
2022-11-18T14:12:39.967Z,99675.31
2022-11-18T14:17:38.083Z,99731.88
2022-11-18T14:22:51.374Z,99696.94
2022-11-18T14:27:50.317Z,99752.19
2022-11-18T14:33:12.072Z,99693.06
2022-11-18T14:43:31.860Z,99708.50
2022-11-18T14:48:32.742Z,99655.25
2022-11-18T14:53:31.042Z,99636.78
2022-11-18T14:58:31.409Z,99595.09
2022-11-18T15:03:29.275Z,99616.44
2022-11-18T15:08:27.080Z,99671.41
2022-11-18T15:13:29.756Z,99576.19
2022-11-18T15:18:27.040Z,99680.47
2022-11-18T15:23:29.653Z,99707.75
2022-11-18T15:28:28.799Z,99687.63
2022-11-18T15:33:26.046Z,99587.56
2022-11-18T15:38:23.219Z,99611.19
2022-11-18T15:43:20.991Z,99629.41
2022-11-18T15:48:19.938Z,99667.72
2022-11-18T15:53:19.001Z,99673.81
2022-11-18T15:58:18.431Z,99654.88
2022-11-18T16:03:15.941Z,99658.38
2022-11-18T16:08:17.626Z,99667.75
2022-11-18T16:13:20.946Z,99664.28
2022-11-18T16:18:19.857Z,99679.16
2022-11-18T16:23:17.767Z,99679.19
2022-11-18T16:28:15.008Z,99636.38
2022-11-18T16:33:12.875Z,99647.41
2022-11-18T16:38:09.957Z,99654.97
2022-11-18T16:43:08.826Z,99650.16
2022-11-18T16:48:06.217Z,99588.53
2022-11-18T16:53:03.850Z,99612.88
2022-11-18T16:58:00.787Z,99607.25
2022-11-18T17:02:59.505Z,99583.50
2022-11-18T17:07:57.012Z,99642.59
2022-11-18T17:12:54.944Z,99514.53
2022-11-18T17:17:56.679Z,99526.97
2022-11-18T17:22:54.664Z,99574.16
2022-11-18T17:27:55.734Z,99557.63
2022-11-18T17:32:59.620Z,99578.44
2022-11-18T17:37:57.832Z,99504.53
2022-11-18T17:42:55.988Z,99503.91
2022-11-18T17:47:53.546Z,99539.25
2022-11-18T17:52:51.061Z,99578.78
2022-11-18T17:57:52.286Z,99579.88
2022-11-18T18:02:55.784Z,99559.06
2022-11-18T18:07:53.378Z,99498.66
2022-11-18T18:13:17.535Z,99594.66
2022-11-18T18:18:15.161Z,99531.16
2022-11-18T18:23:12.306Z,99602.94
2022-11-18T18:28:10.820Z,99612.66
2022-11-18T18:33:08.938Z,99622.47
2022-11-18T18:38:09.911Z,99529.38
2022-11-18T18:43:07.694Z,99607.59
2022-11-18T18:48:05.877Z,99586.50
2022-11-18T18:53:03.957Z,99518.88
2022-11-18T18:58:01.808Z,99564.84
2022-11-18T19:03:05.398Z,99616.53
2022-11-18T19:08:02.676Z,99610.16
2022-11-18T19:13:01.626Z,99695.53
2022-11-18T19:17:59.701Z,99689.53
2022-11-18T19:22:59.949Z,99692.81
2022-11-18T19:27:57.865Z,99716.09
2022-11-18T19:32:58.565Z,99666.84
2022-11-18T19:37:56.192Z,99696.47
2022-11-18T19:42:54.490Z,99716.28
2022-11-18T19:47:52.059Z,99710.25
2022-11-18T19:52:51.005Z,99700.06
2022-11-18T19:57:48.448Z,99706.94
2022-11-18T20:02:46.165Z,99683.19
2022-11-18T20:07:43.326Z,99715.91
2022-11-18T20:12:40.698Z,99646.84
2022-11-18T20:17:37.824Z,99703.97
2022-11-18T20:22:38.694Z,99632.69
2022-11-18T20:27:35.938Z,99697.78
2022-11-18T20:32:37.129Z,99650.78
2022-11-18T20:37:35.265Z,99644.06
2022-11-18T20:42:52.888Z,99671.41
2022-11-18T20:47:51.825Z,99624.91
2022-11-18T20:52:50.744Z,99691.19
2022-11-18T20:57:49.745Z,99700.91
2022-11-18T21:02:46.896Z,99614.97
2022-11-18T21:07:48.562Z,99642.75
2022-11-18T21:13:00.917Z,99595.25
2022-11-18T21:17:59.319Z,99654.53
2022-11-18T21:23:00.249Z,99578.69
2022-11-18T21:28:01.317Z,99662.34
2022-11-18T21:32:59.272Z,99577.50
2022-11-18T21:37:56.413Z,99654.44
2022-11-18T21:42:53.985Z,99689.13
2022-11-18T21:47:53.933Z,99666.38
2022-11-18T21:52:52.049Z,99694.75
2022-11-18T21:57:49.365Z,99702.41
2022-11-18T22:02:46.604Z,99708.34
2022-11-18T22:07:46.798Z,99762.25
2022-11-18T22:12:46.612Z,99697.59
2022-11-18T22:17:44.132Z,99770.53
2022-11-18T22:22:44.529Z,99772.75
2022-11-18T22:27:41.813Z,99741.63
2022-11-18T22:32:41.262Z,99731.13
2022-11-18T22:37:38.606Z,99766.00
2022-11-18T22:42:47.781Z,99687.72
2022-11-18T22:47:45.505Z,99814.38
2022-11-18T22:52:42.571Z,99816.97
2022-11-18T22:57:39.699Z,99763.59
2022-11-18T23:02:36.766Z,99824.78
2022-11-18T23:07:35.907Z,99840.28
2022-11-18T23:12:50.854Z,99779.53
2022-11-18T23:17:47.878Z,99853.69
2022-11-18T23:22:45.600Z,99859.25
2022-11-18T23:27:42.770Z,99832.38
2022-11-18T23:32:39.849Z,99819.44
2022-11-18T23:37:37.160Z,99856.00
2022-11-18T23:42:35.265Z,99817.31
2022-11-18T23:47:32.221Z,99867.16
2022-11-18T23:52:29.290Z,99842.31
2022-11-18T23:57:26.330Z,99886.88
